Time;durP1;ratioP1;P1;durP2;ratioP2;P2;SDS_P1;SDS_P2;PMS_P1;PMS_P2;Temp;Humidity;BMP_temperature;BMP_pressure;BME280_temperature;BME280_humidity;BME280_pressure;Samples;Min_cycle;Max_cycle;Signal;HPM_P1;HPM_P2
2022/02/25 00:00:33;;;;;;;405.33;391.13;;;2.40;99.90;;;;;;4983472;28;20446;-81
2022/02/25 00:02:59;;;;;;;408.90;394.40;;;2.40;99.90;;;;;;4983375;28;20486;-81
2022/02/25 00:05:26;;;;;;;413.97;399.23;;;2.20;99.90;;;;;;4983278;28;20462;-81
2022/02/25 00:07:54;;;;;;;413.50;398.70;;;2.20;99.90;;;;;;4984703;28;20461;-81
2022/02/25 00:10:21;;;;;;;425.33;410.13;;;2.30;99.90;;;;;;4985089;28;20457;-81
2022/02/25 00:12:48;;;;;;;414.40;399.53;;;2.20;99.90;;;;;;4985478;28;20480;-81
2022/02/25 00:15:16;;;;;;;414.93;399.93;;;2.10;99.90;;;;;;4985274;28;20486;-81
2022/02/25 00:17:42;;;;;;;417.93;402.93;;;2.00;99.90;;;;;;4984942;28;20461;-81
2022/02/25 00:20:11;;;;;;;416.80;401.80;;;2.00;99.90;;;;;;4983544;28;20486;-81
2022/02/25 00:22:38;;;;;;;416.50;401.60;;;2.10;99.90;;;;;;4984757;28;20482;-81
2022/02/25 00:25:08;;;;;;;420.03;404.93;;;2.00;99.90;;;;;;4984514;28;20465;-81
2022/02/25 00:27:37;;;;;;;417.63;402.63;;;1.90;99.90;;;;;;4984039;28;20458;-81
2022/02/25 00:30:05;;;;;;;415.60;400.70;;;1.90;99.90;;;;;;4984218;28;20450;-82
2022/02/25 00:32:31;;;;;;;423.43;408.27;;;2.00;99.90;;;;;;4984475;28;20481;-82
2022/02/25 00:34:58;;;;;;;412.53;397.83;;;2.10;99.90;;;;;;4985152;28;20454;-81
2022/02/25 00:37:25;;;;;;;408.27;393.87;;;2.10;99.90;;;;;;4985691;28;20459;-81
2022/02/25 00:39:52;;;;;;;415.40;400.80;;;2.30;99.90;;;;;;4983539;28;20506;-81
2022/02/25 00:42:20;;;;;;;406.30;392.00;;;2.30;99.90;;;;;;4983364;28;20481;-81
2022/02/25 00:44:47;;;;;;;397.20;383.40;;;2.40;99.90;;;;;;4984347;28;20455;-81
2022/02/25 00:47:14;;;;;;;388.83;375.53;;;2.50;99.90;;;;;;4984286;28;20469;-81
2022/02/25 00:49:41;;;;;;;383.93;370.73;;;2.40;99.90;;;;;;4983374;28;20976;-81
2022/02/25 00:52:08;;;;;;;387.37;374.03;;;2.40;99.90;;;;;;4983395;28;20577;-81
2022/02/25 00:54:34;;;;;;;398.60;384.80;;;2.40;99.90;;;;;;4983685;28;20483;-81
2022/02/25 00:57:02;;;;;;;399.93;386.07;;;2.30;99.90;;;;;;4984378;28;20459;-81
2022/02/25 00:59:30;;;;;;;407.10;393.10;;;2.40;99.90;;;;;;4982411;28;20483;-81
2022/02/25 01:01:58;;;;;;;408.13;394.03;;;2.20;99.90;;;;;;4983407;28;20481;-81
2022/02/25 01:04:26;;;;;;;406.27;392.27;;;2.30;99.90;;;;;;4984231;28;20463;-81
2022/02/25 01:06:55;;;;;;;406.50;392.40;;;2.30;99.90;;;;;;4983449;28;20459;-81
2022/02/25 01:09:33;;;;;;;402.33;388.50;;;2.20;99.90;;;;;;4983895;28;20463;-81
2022/02/25 01:12:18;;;;;;;400.20;386.50;;;2.40;99.90;;;;;;4984265;28;20478;-82
2022/02/25 01:14:57;;;;;;;391.90;378.50;;;2.50;99.90;;;;;;4984531;28;20458;-81
2022/02/25 01:17:29;;;;;;;391.43;378.03;;;2.40;99.90;;;;;;4984233;28;20463;-81
2022/02/25 01:20:07;;;;;;;393.20;379.70;;;2.40;99.90;;;;;;4984027;28;20537;-81
2022/02/25 01:22:40;;;;;;;401.30;387.50;;;2.40;99.90;;;;;;4967526;28;20477;-82
2022/02/25 01:25:16;;;;;;;396.10;382.60;;;2.30;99.90;;;;;;4983922;28;20459;-81
2022/02/25 01:27:56;;;;;;;390.13;376.83;;;2.30;99.90;;;;;;4983234;28;20510;-81
2022/02/25 01:30:31;;;;;;;392.80;379.40;;;2.40;99.90;;;;;;4983467;28;20457;-81
2022/02/25 01:33:03;;;;;;;396.40;382.90;;;2.40;99.90;;;;;;4982612;28;20483;-81
2022/02/25 01:35:31;;;;;;;397.43;383.83;;;2.30;99.90;;;;;;4983726;28;20459;-81
2022/02/25 01:38:08;;;;;;;396.97;383.47;;;2.30;99.90;;;;;;4982991;28;20458;-81
2022/02/25 01:40:40;;;;;;;385.63;372.53;;;2.30;99.90;;;;;;4966473;28;20478;-81
2022/02/25 01:43:17;;;;;;;387.50;374.40;;;2.30;99.90;;;;;;4983508;28;20479;-81
2022/02/25 01:45:52;;;;;;;379.80;367.00;;;2.30;99.90;;;;;;4968346;28;20447;-81
2022/02/25 01:48:27;;;;;;;379.80;367.00;;;2.30;99.90;;;;;;4982774;28;20465;-81
2022/02/25 01:51:04;;;;;;;376.40;363.90;;;2.40;99.90;;;;;;4984023;28;20466;-81
2022/02/25 01:53:43;;;;;;;378.17;365.73;;;2.50;99.90;;;;;;4967347;28;20486;-80
2022/02/25 01:56:15;;;;;;;367.67;355.70;;;2.50;99.90;;;;;;4983524;28;20479;-83
2022/02/25 01:58:55;;;;;;;380.13;367.73;;;2.30;99.90;;;;;;4982874;28;20455;-81
2022/02/25 02:01:30;;;;;;;374.83;362.70;;;2.20;99.90;;;;;;4983293;28;20459;-81
2022/02/25 02:04:04;;;;;;;370.70;358.60;;;2.30;99.90;;;;;;4983612;28;20489;-81
2022/02/25 02:06:42;;;;;;;374.47;362.27;;;2.10;99.90;;;;;;4984083;28;20446;-80
2022/02/25 02:09:14;;;;;;;367.60;355.60;;;2.20;99.90;;;;;;4964054;28;20466;-81
2022/02/25 02:11:55;;;;;;;362.23;350.63;;;2.00;99.90;;;;;;4981938;28;20566;-82
2022/02/25 02:14:36;;;;;;;356.70;345.40;;;2.20;99.90;;;;;;4983698;28;20459;-81
2022/02/25 02:17:12;;;;;;;341.87;331.17;;;2.10;99.90;;;;;;4983014;28;20514;-82
2022/02/25 02:19:45;;;;;;;344.40;333.60;;;2.20;99.90;;;;;;4983222;28;20983;-82
2022/02/25 02:22:21;;;;;;;344.30;333.43;;;2.10;99.90;;;;;;4983351;28;20548;-82
2022/02/25 02:25:00;;;;;;;341.83;331.10;;;2.00;99.90;;;;;;4983520;28;20485;-82
2022/02/25 02:30:21;;;;;;;329.00;318.80;;;1.90;99.90;;;;;;4980593;28;20450;-82
2022/02/25 02:32:52;;;;;;;311.20;301.60;;;2.10;99.90;;;;;;4965314;28;20498;-82
2022/02/25 02:35:30;;;;;;;311.20;301.70;;;2.20;99.90;;;;;;4983095;28;20454;-82
2022/02/25 02:38:11;;;;;;;307.50;298.10;;;2.10;99.90;;;;;;4983771;28;20454;-82
2022/02/25 02:40:46;;;;;;;281.03;272.53;;;1.90;99.90;;;;;;4964451;28;20499;-82
2022/02/25 02:43:22;;;;;;;274.00;265.70;;;1.90;99.90;;;;;;4982641;28;20506;-82
2022/02/25 02:46:17;;;;;;;255.63;247.97;;;2.30;99.90;;;;;;4983391;28;20462;-82
2022/02/25 02:48:57;;;;;;;249.10;241.60;;;2.10;99.90;;;;;;4964604;28;20471;-82
2022/02/25 02:51:29;;;;;;;249.93;242.43;;;2.30;99.90;;;;;;4982815;28;20606;-80
2022/02/25 02:54:07;;;;;;;253.33;245.73;;;2.60;99.90;;;;;;4980466;28;20451;-81
2022/02/25 02:56:45;;;;;;;254.10;246.40;;;2.00;99.90;;;;;;4982182;28;20967;-80
2022/02/25 02:59:26;;;;;;;254.17;246.50;;;2.10;99.90;;;;;;4983226;28;20474;-82
2022/02/25 03:02:11;;;;;;;262.03;254.13;;;2.00;99.90;;;;;;4981166;28;20491;-82
2022/02/25 03:04:48;;;;;;;254.10;246.50;;;2.00;99.90;;;;;;4979924;28;20459;-82
2022/02/25 03:07:22;;;;;;;249.47;241.97;;;1.80;99.90;;;;;;4981262;28;20463;-82
2022/02/25 03:10:02;;;;;;;248.70;241.23;;;2.10;99.90;;;;;;4982914;28;20442;-82
2022/02/25 03:12:41;;;;;;;243.63;236.33;;;2.00;99.90;;;;;;4982218;28;20818;-80
2022/02/25 03:15:16;;;;;;;240.50;233.30;;;2.00;99.90;;;;;;4965875;28;20459;-81
2022/02/25 03:17:49;;;;;;;240.00;232.80;;;1.90;99.90;;;;;;4966353;28;20466;-81
2022/02/25 03:20:25;;;;;;;226.13;219.30;;;2.00;99.90;;;;;;4982372;28;20852;-81
2022/02/25 03:22:58;;;;;;;236.20;229.10;;;2.20;99.90;;;;;;4982559;28;20474;-82
2022/02/25 03:25:36;;;;;;;221.90;215.20;;;1.90;99.90;;;;;;4982738;28;20951;-80
2022/02/25 03:28:19;;;;;;;213.87;207.37;;;1.90;99.90;;;;;;4982499;28;20447;-80
2022/02/25 03:30:58;;;;;;;228.00;221.10;;;2.00;99.90;;;;;;4965359;28;20459;-81
2022/02/25 03:33:27;;;;;;;219.00;212.40;;;1.90;99.90;;;;;;4982655;28;21049;-81
2022/02/25 03:36:00;;;;;;;212.03;205.53;;;1.80;99.90;;;;;;4981346;28;20494;-81
2022/02/25 03:38:33;;;;;;;218.40;211.80;;;1.80;99.90;;;;;;4981368;28;20956;-81
2022/02/25 03:41:05;;;;;;;219.73;213.03;;;1.90;99.90;;;;;;4980947;28;20542;-81
2022/02/25 03:43:48;;;;;;;197.27;191.17;;;1.90;99.90;;;;;;4980860;28;20451;-81
2022/02/25 03:46:31;;;;;;;206.07;199.77;;;2.00;99.90;;;;;;4981760;28;20439;-80
2022/02/25 03:49:07;;;;;;;185.40;179.60;;;1.90;99.90;;;;;;4980356;28;20459;-80
2022/02/25 03:51:40;;;;;;;175.03;169.53;;;1.80;99.90;;;;;;4980365;28;20518;-80
2022/02/25 03:54:15;;;;;;;156.07;151.07;;;1.80;99.90;;;;;;4979530;28;20518;-81
2022/02/25 03:56:44;;;;;;;148.23;143.43;;;2.00;99.90;;;;;;4979199;28;20498;-80
2022/02/25 03:59:26;;;;;;;143.20;138.60;;;1.90;99.90;;;;;;4980977;28;20831;-81
2022/02/25 04:01:59;;;;;;;134.07;129.77;;;2.00;99.90;;;;;;4979687;28;20498;-81
2022/02/25 04:04:28;;;;;;;131.80;127.53;;;1.90;99.90;;;;;;4978781;28;20466;-80
2022/02/25 04:06:59;;;;;;;124.27;120.27;;;2.20;99.90;;;;;;4979886;28;20455;-80
2022/02/25 04:09:30;;;;;;;123.00;119.00;;;1.90;99.90;;;;;;4978801;28;20948;-80
2022/02/25 04:12:02;;;;;;;115.03;111.30;;;2.00;99.90;;;;;;4978281;28;20506;-80
2022/02/25 04:14:36;;;;;;;112.30;108.60;;;1.90;99.90;;;;;;4978857;28;20500;-80
2022/02/25 04:17:12;;;;;;;108.10;104.60;;;2.10;99.90;;;;;;4978828;28;20455;-80
2022/02/25 04:19:47;;;;;;;100.70;97.40;;;2.00;99.90;;;;;;4978893;28;20474;-80
2022/02/25 04:22:20;;;;;;;106.40;102.90;;;2.20;99.90;;;;;;4981951;28;20911;-81
2022/02/25 04:24:51;;;;;;;101.67;98.33;;;2.00;99.90;;;;;;4981687;28;20903;-81
2022/02/25 04:27:23;;;;;;;99.10;95.80;;;2.20;99.90;;;;;;4980374;28;20487;-81
2022/02/25 04:30:00;;;;;;;93.30;90.20;;;2.10;99.90;;;;;;4979489;28;20478;-81
2022/02/25 04:32:30;;;;;;;97.67;94.47;;;2.10;99.90;;;;;;4980814;28;20474;-81
2022/02/25 04:34:59;;;;;;;95.30;92.10;;;2.10;99.90;;;;;;4982333;28;20455;-81
2022/02/25 04:37:26;;;;;;;96.20;93.00;;;2.10;99.90;;;;;;4984239;28;20447;-81
2022/02/25 04:39:53;;;;;;;90.33;87.33;;;2.30;99.90;;;;;;4982190;28;20486;-81
2022/02/25 04:42:20;;;;;;;84.93;82.07;;;2.30;99.90;;;;;;4980940;28;20475;-82
2022/02/25 04:44:47;;;;;;;89.70;86.70;;;2.20;99.90;;;;;;4982684;28;20486;-82
2022/02/25 04:47:16;;;;;;;98.37;95.10;;;2.00;99.90;;;;;;4981292;28;20534;-82
2022/02/25 04:49:44;;;;;;;92.00;88.90;;;2.10;99.90;;;;;;4958934;28;20455;-79
2022/02/25 04:52:14;;;;;;;100.37;97.07;;;2.10;99.90;;;;;;4980439;28;20491;-80
2022/02/25 04:54:41;;;;;;;96.77;93.57;;;1.90;99.90;;;;;;4980532;28;20916;-80
2022/02/25 04:57:09;;;;;;;97.50;94.30;;;2.00;99.90;;;;;;4980767;28;20459;-81
2022/02/25 04:59:36;;;;;;;98.67;95.40;;;2.00;99.90;;;;;;4981053;28;20514;-81
2022/02/25 05:02:05;;;;;;;99.70;96.40;;;1.80;99.90;;;;;;4982861;28;20577;-81
2022/02/25 05:04:34;;;;;;;97.10;93.90;;;1.80;99.90;;;;;;4982174;28;20459;-81
2022/02/25 05:07:01;;;;;;;101.00;97.70;;;2.00;99.90;;;;;;4981360;28;20533;-81
2022/02/25 05:09:32;;;;;;;98.03;94.83;;;1.80;99.90;;;;;;4981080;28;20940;-81
2022/02/25 05:12:02;;;;;;;97.00;93.80;;;1.90;99.90;;;;;;4981617;28;20478;-81
2022/02/25 05:20:24;;;;;;;102.10;98.70;;;2.00;99.90;;;;;;4981295;28;20462;-81
2022/02/25 05:22:52;;;;;;;112.77;109.07;;;1.80;99.90;;;;;;4981166;28;20514;-82
2022/02/25 05:25:19;;;;;;;105.67;102.17;;;1.90;99.90;;;;;;4981424;28;20513;-81
2022/02/25 05:27:45;;;;;;;106.40;102.90;;;1.90;99.90;;;;;;4981677;28;20455;-81
2022/02/25 05:30:14;;;;;;;107.70;104.17;;;1.90;99.90;;;;;;4980519;28;20459;-81
2022/02/25 05:32:42;;;;;;;100.03;96.73;;;1.80;99.90;;;;;;4981782;28;20478;-81
2022/02/25 05:35:10;;;;;;;108.23;104.70;;;1.90;99.90;;;;;;4979917;28;20833;-81
2022/02/25 05:37:37;;;;;;;102.13;98.77;;;1.80;99.90;;;;;;4980010;28;20491;-80
2022/02/25 05:40:06;;;;;;;99.10;95.80;;;1.90;99.90;;;;;;4979751;28;20479;-81
2022/02/25 05:42:33;;;;;;;97.00;93.80;;;1.90;99.90;;;;;;4980670;28;20483;-80
2022/02/25 05:45:01;;;;;;;97.67;94.43;;;2.00;99.90;;;;;;4980136;28;20462;-81
2022/02/25 05:47:27;;;;;;;93.70;90.60;;;2.00;99.90;;;;;;4980741;28;20455;-80
2022/02/25 05:49:55;;;;;;;90.47;87.47;;;2.00;99.90;;;;;;4979789;28;20474;-80
2022/02/25 05:52:23;;;;;;;94.53;91.43;;;2.00;99.90;;;;;;4979990;28;20490;-81
2022/02/25 05:54:50;;;;;;;94.20;91.10;;;2.00;99.90;;;;;;4980115;28;20447;-81
2022/02/25 05:57:17;;;;;;;92.70;89.60;;;2.10;99.90;;;;;;4979892;28;20455;-81
2022/02/25 05:59:44;;;;;;;92.83;89.73;;;2.00;99.90;;;;;;4978754;28;20450;-80
2022/02/25 06:02:11;;;;;;;94.57;91.47;;;2.00;99.90;;;;;;4978353;28;20868;-80
2022/02/25 06:04:38;;;;;;;96.80;93.60;;;1.90;99.90;;;;;;4978608;28;20466;-80
2022/02/25 06:07:05;;;;;;;98.23;95.00;;;2.00;99.90;;;;;;4978683;28;20455;-80
2022/02/25 06:09:33;;;;;;;91.33;88.27;;;2.10;99.90;;;;;;4979680;28;20457;-80
2022/02/25 06:12:00;;;;;;;91.40;88.30;;;2.10;99.90;;;;;;4978265;28;20852;-80
2022/02/25 06:14:27;;;;;;;89.83;86.83;;;1.90;99.90;;;;;;4977163;28;20458;-80
2022/02/25 06:16:54;;;;;;;88.57;85.57;;;2.10;99.90;;;;;;4976370;28;20455;-79
2022/02/25 06:19:20;;;;;;;95.40;92.20;;;2.00;99.90;;;;;;4976391;28;20459;-79
2022/02/25 06:21:48;;;;;;;92.10;89.00;;;2.00;99.90;;;;;;4979506;28;20493;-80
2022/02/25 06:24:15;;;;;;;95.47;92.30;;;2.10;99.90;;;;;;4976163;28;20973;-80
2022/02/25 06:26:46;;;;;;;93.10;90.00;;;2.00;99.90;;;;;;4977061;28;20473;-80
2022/02/25 06:29:13;;;;;;;87.60;84.70;;;2.00;99.90;;;;;;4977504;28;20459;-79
2022/02/25 06:31:42;;;;;;;89.93;86.93;;;2.10;99.90;;;;;;4978599;28;20471;-80
2022/02/25 06:34:17;;;;;;;85.23;82.33;;;2.30;99.90;;;;;;4978951;28;20478;-81
2022/02/25 06:36:48;;;;;;;87.33;84.43;;;2.60;99.90;;;;;;4978113;28;20473;-80
2022/02/25 06:39:17;;;;;;;82.60;79.80;;;2.40;99.90;;;;;;4980041;28;20539;-81
2022/02/25 06:41:59;;;;;;;78.53;75.83;;;2.40;99.90;;;;;;4982444;28;20479;-82
2022/02/25 06:44:27;;;;;;;81.73;78.93;;;2.50;99.90;;;;;;4984140;28;20482;-80
2022/02/25 06:46:54;;;;;;;78.87;76.17;;;2.50;99.90;;;;;;4982059;28;20494;-79
2022/02/25 06:49:23;;;;;;;78.47;75.77;;;2.60;99.90;;;;;;4981199;28;20451;-80
2022/02/25 06:51:50;;;;;;;80.37;77.67;;;2.70;99.90;;;;;;4977694;28;20482;-80
2022/02/25 06:54:17;;;;;;;78.03;75.37;;;2.60;99.90;;;;;;4978622;28;21072;-81
2022/02/25 06:56:45;;;;;;;78.43;75.73;;;2.80;99.90;;;;;;4976249;28;20545;-81
2022/02/25 06:59:12;;;;;;;79.43;76.73;;;2.70;99.90;;;;;;4977668;28;20455;-80
2022/02/25 07:01:39;;;;;;;76.60;74.00;;;2.70;99.90;;;;;;4976215;28;20490;-80
2022/02/25 07:04:07;;;;;;;76.00;73.40;;;2.90;99.90;;;;;;4979349;28;20832;-80
2022/02/25 07:06:38;;;;;;;73.40;70.90;;;3.00;99.90;;;;;;4976849;28;20459;-80
2022/02/25 07:09:05;;;;;;;71.60;69.10;;;3.00;99.90;;;;;;4975725;28;20459;-79
2022/02/25 07:11:33;;;;;;;70.60;68.20;;;2.90;99.90;;;;;;4975828;28;20507;-80
2022/02/25 07:14:08;;;;;;;68.23;65.83;;;3.00;99.90;;;;;;4975481;28;20554;-80
2022/02/25 07:16:34;;;;;;;70.40;67.90;;;3.20;99.90;;;;;;4976925;28;21242;-80
2022/02/25 07:19:01;;;;;;;69.53;67.13;;;3.20;99.90;;;;;;4976303;28;20522;-80
2022/02/25 07:21:28;;;;;;;62.63;60.43;;;3.20;99.90;;;;;;4975238;28;20510;-80
2022/02/25 07:23:55;;;;;;;59.77;57.67;;;3.40;99.90;;;;;;4976679;28;20465;-80
2022/02/25 07:26:21;;;;;;;64.50;62.20;;;3.40;99.90;;;;;;4976454;28;20455;-80
2022/02/25 07:28:48;;;;;;;66.37;64.07;;;3.30;99.70;;;;;;4976615;28;20531;-80
2022/02/25 07:31:17;;;;;;;59.93;57.83;;;3.40;99.60;;;;;;4976203;28;20944;-80
2022/02/25 07:33:44;;;;;;;57.73;55.73;;;3.60;99.10;;;;;;4976427;28;20523;-80
2022/02/25 07:36:11;;;;;;;58.70;56.60;;;3.60;98.60;;;;;;4976321;28;20461;-80
2022/02/25 07:38:52;;;;;;;54.87;52.90;;;3.90;98.60;;;;;;4977660;28;20455;-79
2022/02/25 07:41:20;;;;;;;58.27;56.17;;;4.00;97.70;;;;;;4979736;28;20478;-80
2022/02/25 07:43:51;;;;;;;52.20;50.30;;;4.20;97.30;;;;;;4978772;28;20455;-80
2022/02/25 07:46:37;;;;;;;47.80;46.10;;;4.30;96.20;;;;;;4978878;28;20464;-81
2022/02/25 07:49:20;;;;;;;47.40;45.70;;;4.40;96.00;;;;;;4978654;28;20463;-80
2022/02/25 07:51:50;;;;;;;48.27;46.50;;;4.30;95.90;;;;;;4978871;28;20493;-80
2022/02/25 07:54:25;;;;;;;46.70;45.00;;;4.40;96.70;;;;;;4979396;28;20486;-80
2022/02/25 07:56:53;;;;;;;43.80;42.20;;;4.20;95.80;;;;;;4978842;28;20533;-80
2022/02/25 07:59:26;;;;;;;43.27;41.67;;;4.30;95.80;;;;;;4978805;28;20447;-80
2022/02/25 08:01:57;;;;;;;44.43;42.83;;;4.50;95.90;;;;;;4961354;28;20491;-80
2022/02/25 08:04:32;;;;;;;44.23;42.63;;;4.50;95.90;;;;;;4979609;28;20490;-80
2022/02/25 08:07:00;;;;;;;38.30;36.90;;;4.60;95.20;;;;;;4979520;28;20479;-81
2022/02/25 08:09:36;;;;;;;38.00;36.60;;;4.80;94.80;;;;;;4978697;28;20455;-80
2022/02/25 08:12:18;;;;;;;40.00;38.50;;;4.90;95.30;;;;;;4960656;29;20483;-79
2022/02/25 08:14:48;;;;;;;42.20;40.60;;;4.90;96.00;;;;;;4971187;28;20455;-79
2022/02/25 08:17:16;;;;;;;37.43;36.03;;;4.80;96.40;;;;;;4965366;28;20462;-79
2022/02/25 08:19:43;;;;;;;37.40;36.00;;;4.80;95.90;;;;;;4960558;28;20464;-80
2022/02/25 08:22:12;;;;;;;41.73;40.23;;;4.80;96.00;;;;;;4961449;29;20491;-79
2022/02/25 08:24:56;;;;;;;35.20;33.90;;;4.90;96.40;;;;;;4960709;28;20510;-79
2022/02/25 08:27:26;;;;;;;33.60;32.30;;;4.80;95.90;;;;;;4961172;29;20451;-79
2022/02/25 08:30:03;;;;;;;33.50;32.20;;;4.80;96.00;;;;;;4960151;29;20464;-80
2022/02/25 08:32:35;;;;;;;33.87;32.57;;;5.00;96.50;;;;;;4960343;29;20984;-80
2022/02/25 08:35:20;;;;;;;30.90;29.70;;;4.80;97.20;;;;;;4959593;29;20467;-80
2022/02/25 08:37:56;;;;;;;35.57;34.23;;;4.50;99.20;;;;;;4959071;29;20490;-80
2022/02/25 08:40:41;;;;;;;34.97;33.67;;;4.50;99.90;;;;;;4958177;29;20459;-80
2022/02/25 08:43:08;;;;;;;33.53;32.13;;;4.40;99.90;;;;;;4961920;29;20555;-80
2022/02/25 08:45:41;;;;;;;31.70;30.50;;;4.40;99.90;;;;;;4961769;28;20460;-80
2022/02/25 08:48:32;;;;;;;31.93;30.73;;;4.50;99.90;;;;;;4962393;29;20452;-81
2022/02/25 08:51:02;;;;;;;26.30;25.30;;;4.40;99.90;;;;;;4959588;29;21024;-80
2022/02/25 08:53:29;;;;;;;25.07;24.07;;;4.40;99.90;;;;;;4959853;29;20468;-80
2022/02/25 08:55:58;;;;;;;24.30;23.30;;;4.50;99.90;;;;;;4959545;28;20460;-80
2022/02/25 08:58:27;;;;;;;27.37;26.27;;;4.70;99.90;;;;;;4957393;28;21201;-80
2022/02/25 09:01:06;;;;;;;27.70;26.60;;;4.60;99.90;;;;;;4958504;28;20513;-79
2022/02/25 09:04:01;;;;;;;27.10;26.00;;;4.70;99.90;;;;;;4957749;29;20822;-79
2022/02/25 09:06:52;;;;;;;28.80;27.70;;;4.80;99.90;;;;;;4960443;28;20455;-79
2022/02/25 09:09:51;;;;;;;30.40;29.20;;;4.80;99.90;;;;;;4963589;29;20489;-80
2022/02/25 09:12:51;;;;;;;28.67;27.57;;;5.00;99.90;;;;;;4932232;29;20484;-80
2022/02/25 09:15:57;;;;;;;;;;;;;;;;;;;;;
2022/02/25 09:18:37;;;;;;;30.03;28.83;;;5.30;99.90;;;;;;4964691;29;20448;-80
2022/02/25 09:21:32;;;;;;;29.03;27.93;;;5.50;99.90;;;;;;4964412;28;20476;-80
2022/02/25 09:26:46;;;;;;;29.10;28.00;;;5.40;99.90;;;;;;4965013;29;20523;-80
2022/02/25 09:29:34;;;;;;;30.10;28.90;;;5.50;99.90;;;;;;4963754;28;20468;-81
2022/02/25 09:32:09;;;;;;;32.37;31.17;;;5.60;99.90;;;;;;4965702;29;20472;-81
2022/02/25 09:34:37;;;;;;;30.93;29.73;;;5.60;99.90;;;;;;4964223;29;20491;-80
2022/02/25 09:37:05;;;;;;;28.27;27.17;;;5.50;99.70;;;;;;4965279;28;20466;-81
2022/02/25 09:39:43;;;;;;;28.50;27.40;;;5.70;99.60;;;;;;4962839;28;20456;-81
2022/02/25 09:42:16;;;;;;;27.73;26.63;;;5.80;99.70;;;;;;4964425;29;20988;-81
2022/02/25 09:47:38;;;;;;;26.70;25.60;;;6.00;98.10;;;;;;4950042;28;20485;-81
2022/02/25 09:50:07;;;;;;;24.53;23.53;;;5.90;97.30;;;;;;4962244;28;20460;-83
2022/02/25 09:53:07;;;;;;;25.80;24.80;;;5.70;96.20;;;;;;4962929;28;20479;-81
2022/02/25 09:58:54;;;;;;;21.90;21.00;;;6.10;96.10;;;;;;4965234;29;20523;-81
2022/02/25 10:05:04;;;;;;;19.00;18.20;;;6.50;96.00;;;;;;4963286;29;20515;-81
2022/02/25 10:07:56;;;;;;;18.83;17.53;;;7.00;93.10;;;;;;4964170;29;20474;-82
2022/02/25 10:14:13;;;;;;;17.00;16.20;;;6.30;92.00;;;;;;4903178;29;20523;-80
2022/02/25 10:17:20;;;;;;;14.40;13.70;;;6.50;93.10;;;;;;4914041;29;20475;-80
2022/02/25 10:20:15;;;;;;;13.30;12.70;;;6.60;93.30;;;;;;4963198;29;20515;-80
2022/02/25 10:22:43;;;;;;;12.40;11.80;;;6.80;92.60;;;;;;4963781;29;21051;-80
2022/02/25 10:25:32;;;;;;;11.13;10.53;;;7.50;92.00;;;;;;4963889;28;20878;-81
2022/02/25 10:31:24;;;;;;;10.90;10.30;;;7.90;85.70;;;;;;4960212;28;20460;-80
2022/02/25 10:34:07;;;;;;;10.43;9.87;;;8.10;85.00;;;;;;4962400;28;20514;-81
2022/02/25 10:36:46;;;;;;;8.60;8.10;;;8.60;83.90;;;;;;4950387;28;20460;-82
2022/02/25 10:39:19;;;;;;;7.70;7.20;;;8.10;77.00;;;;;;4962682;29;20492;-82
2022/02/25 10:42:07;;;;;;;8.40;7.90;;;8.00;79.30;;;;;;4945349;29;20484;-82
2022/02/25 10:44:43;;;;;;;6.00;5.60;;;8.00;79.80;;;;;;4962696;29;20452;-82
2022/02/25 10:47:19;;;;;;;15.90;4.47;;;7.90;77.60;;;;;;4962842;29;20447;-82
2022/02/25 10:49:47;;;;;;;31.10;5.40;;;7.80;81.30;;;;;;4958929;29;20558;-80
2022/02/25 10:52:26;;;;;;;13.77;4.67;;;7.70;81.00;;;;;;4958222;28;20482;-80
2022/02/25 10:54:53;;;;;;;21.43;4.67;;;7.70;81.60;;;;;;4958165;29;20462;-80
2022/02/25 10:57:21;;;;;;;8.80;4.60;;;7.80;82.50;;;;;;4958374;29;20483;-80
2022/02/25 10:59:49;;;;;;;24.07;5.07;;;7.70;80.60;;;;;;4958255;29;20454;-80
2022/02/25 11:02:27;;;;;;;17.33;4.97;;;8.00;81.90;;;;;;4958576;29;20487;-80
2022/02/25 11:05:08;;;;;;;14.07;4.90;;;8.40;80.60;;;;;;4958443;29;20466;-80
2022/02/25 11:07:37;;;;;;;15.73;4.80;;;8.40;80.10;;;;;;4958543;29;20463;-80
2022/02/25 11:10:04;;;;;;;15.03;4.80;;;8.70;76.80;;;;;;4958728;29;20468;-80
2022/02/25 11:12:32;;;;;;;16.43;5.17;;;8.20;76.40;;;;;;4958952;29;20472;-80
2022/02/25 11:15:00;;;;;;;12.30;4.63;;;8.30;79.20;;;;;;4959384;29;20456;-80
2022/02/25 11:17:28;;;;;;;16.50;4.97;;;8.20;78.10;;;;;;4958872;29;20498;-80
2022/02/25 11:19:58;;;;;;;14.47;4.37;;;8.30;77.90;;;;;;4958522;29;20460;-80
2022/02/25 11:22:27;;;;;;;14.03;4.07;;;8.20;78.90;;;;;;4959831;29;20490;-80
2022/02/25 11:24:55;;;;;;;15.93;4.57;;;7.80;79.30;;;;;;4959244;29;20463;-80
2022/02/25 11:27:22;;;;;;;15.57;4.83;;;7.30;80.00;;;;;;4959175;29;20452;-79
2022/02/25 11:29:57;;;;;;;18.70;5.27;;;7.30;85.30;;;;;;4960683;29;20463;-81
2022/02/25 11:32:33;;;;;;;18.80;6.13;;;7.30;84.70;;;;;;4962190;29;21007;-81
2022/02/25 11:34:59;;;;;;;20.63;5.77;;;7.10;86.30;;;;;;4962682;29;20444;-81
2022/02/25 11:37:42;;;;;;;22.10;7.33;;;7.10;88.50;;;;;;4962973;29;20463;-82
2022/02/25 11:40:09;;;;;;;26.67;6.40;;;7.60;87.70;;;;;;4961108;29;20507;-81
2022/02/25 11:42:36;;;;;;;15.80;5.80;;;7.40;86.20;;;;;;4962168;29;20484;-81
2022/02/25 11:45:19;;;;;;;18.73;6.60;;;7.70;86.50;;;;;;4963874;28;20467;-81
2022/02/25 11:47:51;;;;;;;27.70;6.23;;;8.00;83.60;;;;;;4966264;29;20459;-81
2022/02/25 11:50:33;;;;;;;13.83;5.10;;;8.70;81.00;;;;;;4965039;29;20451;-81
2022/02/25 11:53:01;;;;;;;13.70;4.93;;;9.10;77.20;;;;;;4964593;29;20486;-81
2022/02/25 11:55:34;;;;;;;25.80;5.40;;;9.00;74.70;;;;;;4965521;29;20895;-81
2022/02/25 11:58:34;;;;;;;21.63;6.73;;;8.30;75.40;;;;;;4965428;29;20998;-82
2022/02/25 12:01:11;;;;;;;19.97;5.67;;;8.10;78.30;;;;;;4965101;28;20458;-82
2022/02/25 12:04:09;;;;;;;14.50;4.60;;;7.80;80.40;;;;;;4964211;29;20515;-81
2022/02/25 12:07:02;;;;;;;24.63;5.50;;;7.80;80.80;;;;;;4964546;29;20462;-81
2022/02/25 12:09:48;;;;;;;37.53;5.90;;;8.00;84.20;;;;;;4964234;29;20456;-81
2022/02/25 12:12:36;;;;;;;14.07;4.80;;;8.40;80.40;;;;;;4963942;29;20818;-80
2022/02/25 12:15:07;;;;;;;16.10;4.87;;;8.50;78.90;;;;;;4960379;29;20464;-81
2022/02/25 12:17:41;;;;;;;16.90;5.03;;;8.90;78.60;;;;;;4963880;29;20459;-82
2022/02/25 12:20:11;;;;;;;11.77;4.43;;;8.90;75.40;;;;;;4963648;29;20492;-79
2022/02/25 12:22:56;;;;;;;22.20;5.77;;;9.10;70.70;;;;;;4971290;28;20489;-82
2022/02/25 12:25:47;;;;;;;15.07;4.03;;;9.20;75.10;;;;;;4983469;28;20485;-81
2022/02/25 12:28:34;;;;;;;17.63;4.87;;;8.60;76.30;;;;;;4982557;28;20446;-81
2022/02/25 12:31:03;;;;;;;11.60;4.53;;;7.40;82.20;;;;;;4983330;28;20450;-82
2022/02/25 12:33:32;;;;;;;15.13;5.10;;;6.70;99.90;;;;;;4984046;28;20466;-82
2022/02/25 12:36:01;;;;;;;20.70;6.87;;;6.40;99.90;;;;;;4983649;28;20455;-82
2022/02/25 12:38:30;;;;;;;22.63;6.87;;;6.10;99.90;;;;;;4984366;28;20446;-82
2022/02/25 12:41:10;;;;;;;13.23;7.50;;;5.90;99.90;;;;;;4984727;28;20469;-81
2022/02/25 12:43:49;;;;;;;14.70;8.67;;;5.60;99.90;;;;;;4984862;28;20505;-81
2022/02/25 12:46:16;;;;;;;15.97;7.47;;;5.30;99.90;;;;;;4985181;28;20602;-81
2022/02/25 12:48:45;;;;;;;51.27;47.77;;;5.00;99.90;;;;;;4984606;28;20478;-80
2022/02/25 12:51:12;;;;;;;88.23;82.43;;;4.70;99.90;;;;;;4981381;28;20475;-80
2022/02/25 12:53:52;;;;;;;179.43;172.20;;;4.50;99.90;;;;;;4981708;28;20462;-80
2022/02/25 12:56:21;;;;;;;183.17;175.57;;;4.80;99.90;;;;;;4979871;28;20466;-80
2022/02/25 12:58:49;;;;;;;192.97;184.97;;;4.80;99.90;;;;;;4981287;28;20454;-81
2022/02/25 13:01:22;;;;;;;369.23;354.83;;;4.90;99.90;;;;;;4980812;28;21013;-80
2022/02/25 13:04:00;;;;;;;520.93;498.73;;;4.90;99.90;;;;;;4980835;28;20506;-80
2022/02/25 13:06:28;;;;;;;329.83;317.30;;;5.00;99.90;;;;;;4979412;28;20458;-80
2022/02/25 13:08:56;;;;;;;33.77;31.23;;;4.90;99.90;;;;;;4978446;28;20819;-80
2022/02/25 13:11:24;;;;;;;70.33;67.03;;;4.70;99.90;;;;;;4979837;28;20450;-81
2022/02/25 13:13:52;;;;;;;67.63;64.37;;;4.40;99.90;;;;;;4981242;28;20450;-80
2022/02/25 13:16:19;;;;;;;247.50;238.60;;;4.50;99.90;;;;;;4980540;28;20455;-79
2022/02/25 13:18:45;;;;;;;207.83;200.50;;;4.50;99.90;;;;;;4980442;28;20540;-81
2022/02/25 13:21:14;;;;;;;187.50;177.90;;;4.70;99.90;;;;;;4982675;28;20459;-81
2022/02/25 13:23:48;;;;;;;358.80;345.57;;;4.70;99.90;;;;;;4980956;28;20487;-80
2022/02/25 13:26:27;;;;;;;431.97;414.90;;;4.90;99.90;;;;;;4983308;28;20458;-80
2022/02/25 13:29:05;;;;;;;;;;;;;;;;;;;;;
2022/02/25 13:34:07;;;;;;;390.47;375.37;;;5.10;99.90;;;;;;4979935;28;20538;-82